createdAt,value
2023-03-05T00:00:31.428Z,54.90
2023-03-05T00:02:59.383Z,58.60
2023-03-05T00:05:27.275Z,55.47
2023-03-05T00:07:55.292Z,53.53
2023-03-05T00:10:23.109Z,58.03
2023-03-05T00:12:51.094Z,49.93
2023-03-05T00:15:20.335Z,53.70
2023-03-05T00:17:48.244Z,58.07
2023-03-05T00:20:16.349Z,59.20
2023-03-05T00:22:44.456Z,65.57
2023-03-05T00:25:12.364Z,60.77
2023-03-05T00:27:40.349Z,66.10
2023-03-05T00:30:09.959Z,63.83
2023-03-05T00:32:39.347Z,67.80
2023-03-05T00:35:07.811Z,83.87
2023-03-05T00:37:35.843Z,70.40
2023-03-05T00:40:03.912Z,191.97
2023-03-05T00:42:33.611Z,62.33
2023-03-05T00:45:01.616Z,59.37
2023-03-05T00:47:29.564Z,58.77
2023-03-05T00:49:58.795Z,60.67
2023-03-05T00:52:26.918Z,61.20
2023-03-05T00:54:54.775Z,55.47
2023-03-05T00:57:22.861Z,73.47
2023-03-05T00:59:50.683Z,65.57
2023-03-05T01:02:18.648Z,70.70
2023-03-05T01:04:47.274Z,60.60
2023-03-05T01:07:16.645Z,60.90
2023-03-05T01:09:44.502Z,61.53
2023-03-05T01:12:12.719Z,65.73
2023-03-05T01:14:40.624Z,63.07
2023-03-05T01:17:09.016Z,66.77
2023-03-05T01:19:36.880Z,64.77
2023-03-05T01:22:04.904Z,65.43
2023-03-05T01:24:34.076Z,63.17
2023-03-05T01:27:02.184Z,57.23
2023-03-05T01:29:30.098Z,68.20
2023-03-05T01:31:58.400Z,62.80
2023-03-05T01:34:26.255Z,57.80
2023-03-05T01:36:54.170Z,60.60
2023-03-05T01:39:21.955Z,59.33
2023-03-05T01:41:51.210Z,63.30
2023-03-05T01:44:22.995Z,63.87
2023-03-05T01:46:51.122Z,66.40
2023-03-05T01:49:22.445Z,61.13
2023-03-05T01:52:00.000Z,73.20
2023-03-05T01:54:31.527Z,64.10
2023-03-05T01:57:01.695Z,66.90
2023-03-05T01:59:29.651Z,66.37
2023-03-05T02:01:58.270Z,65.23
2023-03-05T02:04:30.566Z,60.80
2023-03-05T02:06:58.551Z,70.27
2023-03-05T02:09:28.719Z,58.07
2023-03-05T02:12:53.751Z,60.73
2023-03-05T02:15:22.982Z,65.77
2023-03-05T02:17:50.951Z,60.23
2023-03-05T02:20:19.615Z,66.47
2023-03-05T02:22:48.870Z,59.60
2023-03-05T02:25:19.233Z,67.27
2023-03-05T02:27:51.473Z,65.70
2023-03-05T02:30:19.632Z,58.77
2023-03-05T02:32:47.617Z,57.97
2023-03-05T02:35:15.560Z,57.23
2023-03-05T02:37:44.013Z,61.87
2023-03-05T02:40:14.501Z,63.20
2023-03-05T02:42:42.609Z,63.57
2023-03-05T02:45:11.508Z,62.77
2023-03-05T02:47:39.565Z,63.50
2023-03-05T02:50:08.587Z,58.70
2023-03-05T02:52:36.454Z,64.97
2023-03-05T02:55:04.609Z,59.57
2023-03-05T02:57:33.883Z,60.70
2023-03-05T03:00:01.986Z,56.17
2023-03-05T03:02:29.980Z,62.63
2023-03-05T03:04:57.986Z,56.13
2023-03-05T03:07:25.919Z,52.73
2023-03-05T03:09:54.053Z,57.87
2023-03-05T03:12:22.424Z,59.10
2023-03-05T03:14:51.647Z,58.03
2023-03-05T03:17:19.588Z,55.93
2023-03-05T03:19:47.698Z,64.73
2023-03-05T03:22:16.141Z,55.40
2023-03-05T03:24:44.308Z,54.40
2023-03-05T03:27:12.203Z,59.30
2023-03-05T03:29:40.306Z,63.83
2023-03-05T03:32:09.941Z,55.33
2023-03-05T03:34:38.047Z,60.40
2023-03-05T03:37:06.083Z,60.30
2023-03-05T03:39:34.215Z,56.80
2023-03-05T03:42:02.148Z,58.40
2023-03-05T03:44:30.114Z,57.87
2023-03-05T03:46:58.027Z,54.37
2023-03-05T03:49:27.574Z,59.60
2023-03-05T03:51:55.630Z,63.53
2023-03-05T03:54:23.709Z,59.60
2023-03-05T03:56:51.691Z,62.63
2023-03-05T03:59:19.769Z,58.73
2023-03-05T04:01:47.879Z,60.13
2023-03-05T04:04:15.965Z,61.97
2023-03-05T04:06:45.323Z,59.53
2023-03-05T04:09:13.488Z,62.33
2023-03-05T04:11:41.603Z,59.03
2023-03-05T04:14:09.516Z,76.67
2023-03-05T04:16:37.500Z,122.40
2023-03-05T04:19:05.622Z,83.07
2023-03-05T04:21:33.531Z,60.33
2023-03-05T04:24:03.285Z,62.43
2023-03-05T04:26:31.211Z,68.07
2023-03-05T04:28:59.186Z,67.63
2023-03-05T04:31:27.182Z,61.80
2023-03-05T04:33:55.299Z,62.53
2023-03-05T04:36:23.360Z,63.13
2023-03-05T04:38:51.523Z,62.00
2023-03-05T04:41:20.749Z,58.90
2023-03-05T04:43:48.787Z,61.03
2023-03-05T04:46:16.831Z,59.43
2023-03-05T04:48:44.758Z,65.20
2023-03-05T04:51:12.805Z,63.50
2023-03-05T04:53:40.692Z,66.73
2023-03-05T04:56:09.288Z,60.10
2023-03-05T04:58:38.489Z,67.80
2023-03-05T05:01:07.069Z,65.87
2023-03-05T05:03:35.073Z,62.47
2023-03-05T05:06:03.110Z,65.57
2023-03-05T05:08:31.125Z,66.03
2023-03-05T05:10:59.851Z,69.87
2023-03-05T05:13:27.799Z,64.77
2023-03-05T05:15:57.192Z,68.73
2023-03-05T05:18:25.168Z,67.17
2023-03-05T05:20:53.327Z,72.33
2023-03-05T05:23:21.255Z,66.53
2023-03-05T05:25:57.681Z,70.00
2023-03-05T05:28:25.617Z,72.90
2023-03-05T05:30:53.787Z,70.40
2023-03-05T05:33:23.081Z,73.23
2023-03-05T05:35:51.590Z,155.97
2023-03-05T05:38:19.710Z,95.57
2023-03-05T05:40:47.818Z,72.97
2023-03-05T05:43:15.923Z,73.50
2023-03-05T05:45:44.074Z,67.27
2023-03-05T05:48:12.196Z,74.37
2023-03-05T05:50:41.651Z,70.10
2023-03-05T05:53:09.678Z,69.60
2023-03-05T05:55:40.862Z,75.47
2023-03-05T05:58:08.910Z,75.83
2023-03-05T06:00:37.163Z,68.13
2023-03-05T06:03:05.348Z,72.83
2023-03-05T06:05:33.500Z,73.63
2023-03-05T06:08:02.815Z,69.90
2023-03-05T06:10:30.879Z,69.63
2023-03-05T06:12:58.866Z,76.60
2023-03-05T06:15:27.139Z,66.53
2023-03-05T06:17:55.182Z,70.77
2023-03-05T06:20:23.272Z,67.77
2023-03-05T06:22:51.567Z,66.80
2023-03-05T06:25:20.973Z,71.73
2023-03-05T06:27:49.110Z,67.73
2023-03-05T06:30:17.419Z,68.43
2023-03-05T06:32:45.762Z,68.30
2023-03-05T06:35:14.114Z,66.07
2023-03-05T06:37:42.152Z,60.63
2023-03-05T06:40:11.377Z,68.17
2023-03-05T06:42:40.917Z,67.27
2023-03-05T06:45:10.565Z,64.73
2023-03-05T06:47:38.658Z,67.47
2023-03-05T06:50:07.592Z,65.27
2023-03-05T06:52:35.607Z,64.77
2023-03-05T06:55:03.675Z,65.40
2023-03-05T06:57:31.807Z,67.80
2023-03-05T07:00:01.189Z,65.23
2023-03-05T07:02:29.309Z,66.03
2023-03-05T07:04:57.246Z,67.77
2023-03-05T07:07:25.379Z,69.83
2023-03-05T07:09:53.730Z,64.00
2023-03-05T07:12:21.925Z,67.53
2023-03-05T07:14:50.118Z,66.57
2023-03-05T07:17:19.847Z,65.43
2023-03-05T07:19:47.777Z,64.77
2023-03-05T07:22:16.507Z,75.23
2023-03-05T07:24:44.561Z,107.10
2023-03-05T07:27:12.919Z,70.07
2023-03-05T07:29:40.928Z,70.57
2023-03-05T07:32:09.323Z,70.53
2023-03-05T07:34:39.936Z,65.97
2023-03-05T07:37:08.077Z,74.80
2023-03-05T07:39:36.069Z,65.73
2023-03-05T07:42:04.364Z,72.47
2023-03-05T07:44:32.394Z,66.00
2023-03-05T07:47:00.522Z,67.43
2023-03-05T07:49:28.490Z,92.23
2023-03-05T07:51:57.855Z,125.47
2023-03-05T07:54:25.807Z,178.53
2023-03-05T07:56:55.581Z,93.87
2023-03-05T07:59:23.601Z,73.17
2023-03-05T08:01:51.944Z,65.17
2023-03-05T08:04:20.068Z,62.67
2023-03-05T08:06:50.045Z,61.93
2023-03-05T08:09:19.366Z,66.67
2023-03-05T08:11:47.519Z,65.73
2023-03-05T08:14:15.558Z,61.37
2023-03-05T08:16:44.295Z,66.37
2023-03-05T08:19:13.391Z,64.83
2023-03-05T08:21:41.512Z,62.43
2023-03-05T08:24:09.718Z,67.77
2023-03-05T08:26:39.301Z,62.33
2023-03-05T08:29:07.608Z,64.20
2023-03-05T08:31:35.651Z,60.93
2023-03-05T08:34:04.013Z,56.73
2023-03-05T08:36:31.985Z,97.50
2023-03-05T08:39:00.562Z,65.27
2023-03-05T08:41:28.635Z,92.80
2023-03-05T08:43:58.156Z,61.73
2023-03-05T08:46:26.154Z,57.40
2023-03-05T08:48:54.412Z,51.83
2023-03-05T08:51:23.501Z,49.73
2023-03-05T08:53:51.537Z,56.47
2023-03-05T08:56:19.565Z,56.33
2023-03-05T08:58:48.452Z,56.70
2023-03-05T09:01:17.825Z,53.43
2023-03-05T09:03:45.690Z,59.67
2023-03-05T09:06:13.708Z,50.00
2023-03-05T09:08:42.006Z,53.70
2023-03-05T09:11:11.000Z,47.20
2023-03-05T09:13:39.102Z,39.50
2023-03-05T09:16:08.074Z,42.03
2023-03-05T09:18:37.612Z,41.53
2023-03-05T09:21:06.059Z,41.73
2023-03-05T09:23:34.053Z,42.87
2023-03-05T09:26:02.342Z,43.10
2023-03-05T09:28:30.376Z,40.40
2023-03-05T09:30:58.311Z,40.77
2023-03-05T09:33:26.239Z,39.23
2023-03-05T09:35:55.544Z,39.57
2023-03-05T09:38:23.496Z,38.87
2023-03-05T09:40:54.749Z,31.83
2023-03-05T09:43:31.108Z,29.67
2023-03-05T09:46:04.063Z,34.57
2023-03-05T09:48:40.617Z,113.27
2023-03-05T09:51:12.506Z,121.13
2023-03-05T09:53:44.120Z,58.37
2023-03-05T09:56:12.973Z,36.43
2023-03-05T09:58:41.752Z,29.73
2023-03-05T10:01:11.297Z,34.73
2023-03-05T10:03:46.325Z,33.07
2023-03-05T10:06:18.015Z,29.40
2023-03-05T10:08:50.210Z,31.60
2023-03-05T10:11:25.616Z,36.37
2023-03-05T10:13:53.862Z,28.37
2023-03-05T10:16:41.822Z,28.93
2023-03-05T10:19:12.139Z,32.73
2023-03-05T10:21:43.480Z,25.10
2023-03-05T10:24:14.510Z,29.50
2023-03-05T10:26:54.409Z,23.70
2023-03-05T10:29:38.750Z,32.50
2023-03-05T10:32:13.037Z,30.83
2023-03-05T10:35:01.170Z,24.57
2023-03-05T10:37:59.008Z,25.23
2023-03-05T10:40:30.118Z,24.57
2023-03-05T10:43:02.620Z,24.87
2023-03-05T10:45:32.276Z,25.47
2023-03-05T10:48:02.889Z,20.97
2023-03-05T10:50:34.545Z,22.43
2023-03-05T10:53:13.959Z,21.17
2023-03-05T10:55:42.339Z,21.63
2023-03-05T10:58:12.392Z,22.20
2023-03-05T11:00:40.542Z,24.43
2023-03-05T11:03:09.398Z,21.20
2023-03-05T11:05:47.837Z,19.77
2023-03-05T11:08:32.194Z,20.67
2023-03-05T11:11:16.886Z,21.37
2023-03-05T11:13:56.334Z,37.90
2023-03-05T11:16:26.104Z,21.43
2023-03-05T11:19:22.394Z,24.47
2023-03-05T11:22:07.203Z,19.17
2023-03-05T11:24:36.682Z,21.23
2023-03-05T11:27:22.795Z,19.10
2023-03-05T11:29:51.225Z,24.73
2023-03-05T11:32:22.476Z,19.60
2023-03-05T11:34:51.216Z,21.67
2023-03-05T11:37:24.730Z,21.47
2023-03-05T11:40:08.418Z,21.97
2023-03-05T11:42:36.425Z,20.30
2023-03-05T11:45:04.940Z,22.73
2023-03-05T11:47:36.922Z,23.83
2023-03-05T11:50:11.908Z,20.60
2023-03-05T11:52:42.773Z,21.07
2023-03-05T11:55:16.055Z,27.00
2023-03-05T11:57:45.758Z,22.97
2023-03-05T12:00:16.569Z,23.43
2023-03-05T12:02:44.707Z,29.67
2023-03-05T12:05:15.554Z,33.47
2023-03-05T12:07:46.487Z,40.43
2023-03-05T12:10:17.911Z,29.50
2023-03-05T12:12:48.122Z,23.63
2023-03-05T12:15:40.360Z,22.90
2023-03-05T12:18:15.076Z,22.83
2023-03-05T12:20:45.511Z,25.17
2023-03-05T12:23:15.044Z,23.80
2023-03-05T12:25:51.095Z,22.07
2023-03-05T12:28:39.373Z,49.63
2023-03-05T12:31:07.577Z,33.13
2023-03-05T12:33:37.314Z,23.73
2023-03-05T12:36:34.072Z,28.20
2023-03-05T12:39:02.111Z,23.77
2023-03-05T12:41:40.604Z,24.27
2023-03-05T12:44:23.559Z,21.03
2023-03-05T12:47:23.846Z,20.13
2023-03-05T12:49:52.225Z,22.87
2023-03-05T12:52:26.153Z,24.47
2023-03-05T12:55:16.861Z,22.60
2023-03-05T12:57:46.469Z,23.87
2023-03-05T13:00:21.531Z,25.73
2023-03-05T13:02:52.432Z,24.10
2023-03-05T13:05:22.546Z,21.20
2023-03-05T13:07:50.888Z,19.37
2023-03-05T13:10:23.894Z,28.67
2023-03-05T13:12:54.125Z,24.03
2023-03-05T13:15:22.979Z,31.00
2023-03-05T13:17:55.875Z,25.93
2023-03-05T13:20:29.819Z,25.17
2023-03-05T13:23:05.716Z,23.90
2023-03-05T13:25:33.689Z,24.27
2023-03-05T13:28:05.622Z,25.90
2023-03-05T13:30:34.734Z,169.57
2023-03-05T13:33:03.996Z,24.27
2023-03-05T13:35:32.138Z,28.93
2023-03-05T13:38:00.358Z,21.87
2023-03-05T13:40:29.143Z,25.03
2023-03-05T13:42:57.265Z,26.23
2023-03-05T13:45:28.423Z,30.40
2023-03-05T13:47:57.785Z,31.73
2023-03-05T13:50:28.007Z,24.77
2023-03-05T13:52:58.384Z,23.40
2023-03-05T13:55:27.371Z,21.80
2023-03-05T13:57:55.324Z,21.47
2023-03-05T14:00:32.102Z,21.83
2023-03-05T14:03:01.977Z,22.43
2023-03-05T14:05:30.993Z,59.90
2023-03-05T14:07:59.098Z,82.00
2023-03-05T14:10:34.779Z,51.30
2023-03-05T14:13:04.752Z,27.00
2023-03-05T14:15:34.873Z,26.73
2023-03-05T14:18:20.380Z,27.57
2023-03-05T14:21:02.908Z,27.47
2023-03-05T14:23:41.685Z,23.30
2023-03-05T14:26:19.163Z,22.47
2023-03-05T14:28:51.791Z,22.80
2023-03-05T14:31:21.583Z,25.27
2023-03-05T14:33:49.895Z,25.90
2023-03-05T14:36:23.574Z,25.43
2023-03-05T14:38:52.295Z,23.20
2023-03-05T14:41:31.003Z,25.87
2023-03-05T14:43:58.981Z,24.50
2023-03-05T14:46:28.270Z,24.17
2023-03-05T14:48:56.405Z,24.93
2023-03-05T14:51:24.499Z,22.37
2023-03-05T14:53:52.490Z,22.80
2023-03-05T14:56:23.872Z,23.63
2023-03-05T14:58:51.900Z,25.20
2023-03-05T15:01:19.919Z,22.87
2023-03-05T15:03:49.363Z,21.73
2023-03-05T15:06:25.630Z,22.40
2023-03-05T15:08:54.349Z,21.47
2023-03-05T15:11:22.884Z,19.03
2023-03-05T15:13:51.177Z,21.00
2023-03-05T15:16:19.163Z,20.47
2023-03-05T15:18:47.533Z,20.00
2023-03-05T15:21:16.787Z,22.33
2023-03-05T15:23:45.430Z,59.77
2023-03-05T15:26:14.379Z,23.80
2023-03-05T15:28:42.579Z,20.10
2023-03-05T15:31:10.779Z,19.13
2023-03-05T15:33:38.735Z,18.53
2023-03-05T15:36:07.556Z,20.37
2023-03-05T15:38:41.688Z,16.63
2023-03-05T15:41:11.941Z,18.53
2023-03-05T15:43:40.020Z,19.33
2023-03-05T15:46:08.078Z,18.13
2023-03-05T15:48:36.419Z,21.97
2023-03-05T15:51:07.799Z,18.43
2023-03-05T15:53:37.102Z,18.97
2023-03-05T15:56:05.222Z,17.47
2023-03-05T15:58:33.197Z,25.23
2023-03-05T16:01:01.065Z,29.73
2023-03-05T16:03:29.178Z,21.97
2023-03-05T16:05:57.026Z,21.33
2023-03-05T16:08:24.925Z,20.50
2023-03-05T16:10:54.285Z,19.87
2023-03-05T16:13:22.206Z,18.27
2023-03-05T16:15:53.230Z,19.67
2023-03-05T16:18:21.372Z,19.73
2023-03-05T16:20:49.506Z,23.37
2023-03-05T16:23:17.393Z,22.07
2023-03-05T16:25:45.463Z,18.87
2023-03-05T16:28:15.124Z,19.53
2023-03-05T16:30:43.131Z,19.33
2023-03-05T16:33:11.027Z,20.30
2023-03-05T16:35:39.375Z,23.60
2023-03-05T16:38:08.412Z,99.33
2023-03-05T16:41:05.461Z,214.07
2023-03-05T16:43:27.213Z,54.53
2023-03-05T16:45:55.318Z,24.87
2023-03-05T16:48:23.215Z,19.33
2023-03-05T16:50:51.284Z,20.30
2023-03-05T16:53:20.212Z,25.97
2023-03-05T16:55:48.246Z,21.13
2023-03-05T16:58:16.095Z,20.47
2023-03-05T17:00:49.127Z,18.17
2023-03-05T17:03:17.016Z,18.70
2023-03-05T17:05:45.067Z,19.07
2023-03-05T17:08:12.927Z,30.13
2023-03-05T17:10:40.842Z,22.50
2023-03-05T17:13:08.721Z,19.27
2023-03-05T17:15:36.837Z,22.47
2023-03-05T17:18:08.809Z,23.20
2023-03-05T17:20:36.909Z,18.83
2023-03-05T17:23:04.800Z,21.63
2023-03-05T17:25:32.951Z,20.63
2023-03-05T17:28:00.959Z,21.07
2023-03-05T17:30:31.430Z,24.07
2023-03-05T17:32:59.329Z,21.70
2023-03-05T17:35:29.685Z,21.53
2023-03-05T17:37:57.743Z,25.03
2023-03-05T17:40:26.078Z,31.80
2023-03-05T17:42:53.961Z,25.10
2023-03-05T17:45:22.219Z,25.70
2023-03-05T17:47:50.244Z,28.93
2023-03-05T17:50:19.777Z,31.53
2023-03-05T17:52:49.032Z,22.73
2023-03-05T17:55:18.573Z,22.27
2023-03-05T17:57:47.872Z,24.67
2023-03-05T18:00:17.881Z,22.83
2023-03-05T18:02:45.745Z,90.03
2023-03-05T18:05:13.736Z,77.10
2023-03-05T18:07:41.616Z,230.10
2023-03-05T18:10:14.377Z,80.37
2023-03-05T18:12:42.299Z,270.70
2023-03-05T18:15:11.915Z,267.80
2023-03-05T18:17:40.042Z,312.20
2023-03-05T18:20:09.325Z,24.10
2023-03-05T18:22:37.333Z,20.80
2023-03-05T18:25:05.718Z,27.33
2023-03-05T18:27:35.342Z,21.97
2023-03-05T18:30:03.274Z,22.47
2023-03-05T18:32:31.470Z,21.90
2023-03-05T18:34:59.490Z,20.63
2023-03-05T18:37:27.626Z,21.40
2023-03-05T18:39:55.552Z,21.77
2023-03-05T18:42:23.689Z,23.20
2023-03-05T18:44:53.163Z,24.90
2023-03-05T18:47:21.127Z,31.33
2023-03-05T18:49:48.960Z,22.20
2023-03-05T18:52:17.334Z,19.37
2023-03-05T18:54:45.279Z,24.30
2023-03-05T18:57:14.351Z,23.03
2023-03-05T18:59:42.257Z,19.20
2023-03-05T19:02:16.898Z,18.47
2023-03-05T19:04:44.851Z,17.20
2023-03-05T19:07:13.081Z,15.87
2023-03-05T19:09:52.139Z,21.83
2023-03-05T19:12:20.867Z,20.07
2023-03-05T19:14:48.883Z,35.07
2023-03-05T19:17:18.122Z,32.60
2023-03-05T19:19:50.885Z,30.70
2023-03-05T19:22:18.940Z,33.13
2023-03-05T19:28:30.069Z,36.90
2023-03-05T19:30:59.280Z,33.30
2023-03-05T19:33:28.590Z,33.80
2023-03-05T19:35:56.467Z,31.33
2023-03-05T19:38:24.909Z,27.40
2023-03-05T19:40:52.732Z,27.60
2023-03-05T19:43:20.639Z,24.87
2023-03-05T19:45:48.474Z,21.63
2023-03-05T19:48:16.891Z,19.17
2023-03-05T19:50:46.050Z,22.70
2023-03-05T19:53:14.018Z,19.00
2023-03-05T19:55:42.006Z,22.13
2023-03-05T19:58:09.823Z,21.40
2023-03-05T20:00:37.675Z,22.83
2023-03-05T20:03:05.693Z,21.43
2023-03-05T20:05:33.506Z,23.23
2023-03-05T20:08:02.897Z,19.07
2023-03-05T20:10:30.701Z,22.77
2023-03-05T20:12:58.689Z,22.50
2023-03-05T20:15:29.193Z,23.07
2023-03-05T20:17:57.671Z,19.33
2023-03-05T20:20:25.572Z,20.93
2023-03-05T20:22:54.077Z,21.23
2023-03-05T20:25:24.819Z,22.13
2023-03-05T20:27:53.184Z,22.17
2023-03-05T20:30:21.296Z,21.17
2023-03-05T20:32:49.318Z,23.10
2023-03-05T20:35:18.316Z,21.53
2023-03-05T20:38:00.350Z,23.73
2023-03-05T20:40:29.572Z,27.50
2023-03-05T20:42:57.515Z,25.83
2023-03-05T20:45:25.414Z,25.87
2023-03-05T20:47:53.416Z,23.03
2023-03-05T20:50:22.300Z,27.00
2023-03-05T20:52:53.550Z,53.73
2023-03-05T20:56:19.902Z,23.83
2023-03-05T20:58:49.322Z,20.90
2023-03-05T21:01:17.176Z,20.53
2023-03-05T21:03:45.129Z,23.17
2023-03-05T21:06:12.932Z,23.17
2023-03-05T21:08:41.475Z,22.67
2023-03-05T21:11:09.423Z,20.90
2023-03-05T21:13:37.436Z,21.90
2023-03-05T21:16:09.271Z,21.63
2023-03-05T21:18:37.460Z,24.40
2023-03-05T21:21:05.616Z,21.30
2023-03-05T21:23:33.637Z,26.10
2023-03-05T21:26:01.682Z,30.27
2023-03-05T21:28:29.680Z,24.67
2023-03-05T21:30:57.506Z,20.93
2023-03-05T21:33:27.574Z,26.63
2023-03-05T21:35:57.941Z,21.80
2023-03-05T21:42:13.605Z,20.17
2023-03-05T21:44:41.652Z,25.57
2023-03-05T21:47:09.731Z,26.63
2023-03-05T21:49:39.300Z,23.43
2023-03-05T21:52:11.025Z,24.03
2023-03-05T21:54:39.319Z,22.83
2023-03-05T21:57:07.971Z,22.17
2023-03-05T21:59:36.093Z,22.00
2023-03-05T22:02:04.084Z,23.03
2023-03-05T22:04:32.194Z,23.73
2023-03-05T22:07:01.577Z,23.50
2023-03-05T22:09:29.567Z,22.07
2023-03-05T22:11:57.431Z,24.83
2023-03-05T22:14:25.444Z,23.73
2023-03-05T22:16:55.038Z,25.87
2023-03-05T22:19:23.248Z,25.77
2023-03-05T22:21:51.333Z,19.97
2023-03-05T22:24:21.890Z,27.20
2023-03-05T22:26:49.942Z,31.43
2023-03-05T22:29:18.210Z,25.17
2023-03-05T22:31:46.190Z,30.10
2023-03-05T22:34:14.372Z,25.33
2023-03-05T22:36:42.673Z,23.53
2023-03-05T22:39:10.565Z,25.53
2023-03-05T22:41:41.351Z,26.93
2023-03-05T22:44:09.401Z,29.03
2023-03-05T22:46:37.392Z,19.60
2023-03-05T22:49:05.462Z,49.10
2023-03-05T22:51:33.340Z,73.20
2023-03-05T22:54:01.678Z,23.60
2023-03-05T22:56:29.749Z,20.67
2023-03-05T22:58:59.254Z,28.60
2023-03-05T23:01:27.533Z,34.67
2023-03-05T23:04:03.627Z,33.90
2023-03-05T23:06:31.785Z,30.40
2023-03-05T23:09:00.208Z,24.87
2023-03-05T23:11:30.247Z,23.40
2023-03-05T23:13:59.877Z,21.73
2023-03-05T23:16:27.823Z,20.87
2023-03-05T23:18:56.218Z,20.77
2023-03-05T23:21:24.232Z,22.27
2023-03-05T23:23:53.209Z,22.90
2023-03-05T23:26:21.073Z,22.03
2023-03-05T23:28:49.217Z,22.80
2023-03-05T23:31:20.059Z,22.50
2023-03-05T23:33:48.129Z,21.70
2023-03-05T23:36:19.846Z,27.20
2023-03-05T23:38:47.917Z,24.87
2023-03-05T23:41:15.834Z,25.20
2023-03-05T23:43:43.714Z,20.67
2023-03-05T23:46:12.368Z,21.80
2023-03-05T23:48:41.733Z,23.53
2023-03-05T23:51:10.173Z,24.30
2023-03-05T23:53:38.147Z,20.37
2023-03-05T23:56:10.609Z,28.30
2023-03-05T23:58:38.561Z,27.40
